createdAt,value
2024-01-22T00:00:30.857Z,521.00
2024-01-22T00:01:30.809Z,520.00
2024-01-22T00:02:30.799Z,519.00
2024-01-22T00:03:30.856Z,517.00
2024-01-22T00:57:51.830Z,522.00
2024-01-22T00:58:31.099Z,519.00
2024-01-22T00:59:31.091Z,516.00
2024-01-22T01:00:31.093Z,515.00
2024-01-22T01:01:31.097Z,516.00
2024-01-22T01:02:31.099Z,517.00
2024-01-22T01:03:31.196Z,517.00
2024-01-22T01:04:31.195Z,516.00
2024-01-22T01:05:31.112Z,518.00
2024-01-22T01:06:31.105Z,518.00
2024-01-22T01:07:31.116Z,518.00
2024-01-22T01:08:31.111Z,517.00
2024-01-22T01:09:31.112Z,514.00
2024-01-22T01:10:31.116Z,513.00
2024-01-22T01:11:31.130Z,512.00
2024-01-22T01:12:31.116Z,511.00
2024-01-22T01:13:31.149Z,509.00
2024-01-22T01:14:31.127Z,515.00
2024-01-22T01:15:31.124Z,517.00
2024-01-22T01:16:31.120Z,518.00
2024-01-22T01:17:31.156Z,518.00
2024-01-22T01:18:31.277Z,521.00
2024-01-22T01:19:31.243Z,524.00
2024-01-22T01:20:31.133Z,528.00
2024-01-22T01:21:31.152Z,531.00
2024-01-22T01:22:31.125Z,531.00
2024-01-22T01:23:31.152Z,530.00
2024-01-22T01:24:31.134Z,526.00
2024-01-22T01:25:31.137Z,524.00
2024-01-22T01:26:31.137Z,524.00
2024-01-22T01:27:31.136Z,522.00
2024-01-22T01:28:31.132Z,522.00
2024-01-22T01:29:31.169Z,523.00
2024-01-22T01:30:31.221Z,524.00
2024-01-22T01:31:31.280Z,523.00
2024-01-22T01:32:31.460Z,522.00
2024-01-22T01:33:31.481Z,522.00
2024-01-22T01:34:31.644Z,521.00
2024-01-22T01:35:31.489Z,519.00
2024-01-22T01:36:31.549Z,520.00
2024-01-22T01:37:31.629Z,517.00
2024-01-22T01:38:31.659Z,516.00
2024-01-22T01:39:31.700Z,516.00
2024-01-22T01:40:31.745Z,512.00
2024-01-22T01:41:31.804Z,513.00
2024-01-22T01:42:31.868Z,513.00
2024-01-22T01:43:31.908Z,513.00
2024-01-22T01:44:31.969Z,516.00
2024-01-22T01:45:32.040Z,517.00
2024-01-22T01:46:32.072Z,518.00
2024-01-22T01:47:32.155Z,517.00
2024-01-22T01:48:32.302Z,519.00
2024-01-22T01:49:32.224Z,519.00
2024-01-22T01:50:32.272Z,521.00
2024-01-22T01:51:32.322Z,522.00
2024-01-22T01:52:32.391Z,523.00
2024-01-22T01:53:32.440Z,524.00
2024-01-22T01:54:32.478Z,520.00
2024-01-22T01:55:32.526Z,518.00
2024-01-22T01:56:32.586Z,518.00
2024-01-22T01:57:33.001Z,518.00
2024-01-22T01:58:32.706Z,517.00
2024-01-22T01:59:32.790Z,514.00
2024-01-22T02:00:33.057Z,512.00
2024-01-22T02:01:33.014Z,513.00
2024-01-22T02:02:33.005Z,515.00
2024-01-22T02:03:33.186Z,514.00
2024-01-22T02:04:33.061Z,519.00
2024-01-22T02:05:33.229Z,517.00
2024-01-22T02:06:33.139Z,514.00
2024-01-22T02:07:33.198Z,517.00
2024-01-22T02:08:33.352Z,517.00
2024-01-22T02:09:33.303Z,519.00
2024-01-22T02:10:33.369Z,520.00
2024-01-22T02:11:33.430Z,522.00
2024-01-22T02:12:33.476Z,523.00
2024-01-22T02:13:33.522Z,522.00
2024-01-22T02:14:33.628Z,523.00
2024-01-22T02:15:33.613Z,521.00
2024-01-22T02:16:33.679Z,520.00
2024-01-22T02:17:34.056Z,519.00
2024-01-22T02:18:33.939Z,518.00
2024-01-22T02:19:33.975Z,520.00
2024-01-22T02:20:33.956Z,521.00
2024-01-22T02:21:33.953Z,520.00
2024-01-22T02:22:34.026Z,517.00
2024-01-22T02:23:34.092Z,518.00
2024-01-22T02:24:34.120Z,519.00
2024-01-22T02:25:34.159Z,516.00
2024-01-22T02:26:36.621Z,516.00
2024-01-22T02:27:34.227Z,518.00
2024-01-22T02:28:34.213Z,518.00
2024-01-22T02:29:34.271Z,518.00
2024-01-22T02:30:34.218Z,519.00
2024-01-22T02:31:34.206Z,519.00
2024-01-22T02:32:34.287Z,518.00
2024-01-22T02:33:34.420Z,520.00
2024-01-22T02:34:34.251Z,520.00
2024-01-22T02:35:34.346Z,519.00
2024-01-22T02:36:34.212Z,520.00
2024-01-22T02:37:34.222Z,520.00
2024-01-22T02:38:34.236Z,523.00
2024-01-22T02:39:34.232Z,524.00
2024-01-22T02:40:34.241Z,520.00
2024-01-22T02:41:34.297Z,520.00
2024-01-22T02:42:34.234Z,522.00
2024-01-22T02:43:34.230Z,523.00
2024-01-22T02:44:34.269Z,522.00
2024-01-22T02:45:34.239Z,522.00
2024-01-22T02:46:34.240Z,522.00
2024-01-22T02:47:34.436Z,523.00
2024-01-22T02:48:34.381Z,523.00
2024-01-22T02:49:34.420Z,524.00
2024-01-22T02:50:34.278Z,524.00
2024-01-22T02:51:34.231Z,524.00
2024-01-22T02:52:34.239Z,521.00
2024-01-22T02:53:34.306Z,521.00
2024-01-22T02:54:34.345Z,519.00
2024-01-22T02:55:34.378Z,520.00
2024-01-22T02:56:34.482Z,519.00
2024-01-22T02:57:34.481Z,519.00
2024-01-22T02:58:35.103Z,516.00
2024-01-22T02:59:34.608Z,517.00
2024-01-22T03:00:34.719Z,516.00
2024-01-22T03:01:34.696Z,515.00
2024-01-22T03:02:34.793Z,515.00
2024-01-22T03:03:34.787Z,515.00
2024-01-22T03:04:34.885Z,511.00
2024-01-22T03:05:34.944Z,513.00
2024-01-22T03:06:35.007Z,514.00
2024-01-22T03:07:35.002Z,512.00
2024-01-22T03:08:35.083Z,511.00
2024-01-22T03:09:35.113Z,513.00
2024-01-22T03:10:35.148Z,513.00
2024-01-22T03:11:35.255Z,515.00
2024-01-22T03:12:35.266Z,517.00
2024-01-22T03:13:35.311Z,518.00
2024-01-22T03:14:35.404Z,518.00
2024-01-22T03:15:35.415Z,517.00
2024-01-22T03:16:35.472Z,516.00
2024-01-22T03:17:35.589Z,518.00
2024-01-22T03:18:35.724Z,521.00
2024-01-22T03:19:35.675Z,521.00
2024-01-22T03:20:35.727Z,520.00
2024-01-22T03:21:35.762Z,517.00
2024-01-22T03:22:35.846Z,518.00
2024-01-22T03:23:35.883Z,520.00
2024-01-22T03:24:35.909Z,519.00
2024-01-22T03:25:35.971Z,520.00
2024-01-22T03:26:36.097Z,519.00
2024-01-22T03:27:36.098Z,520.00
2024-01-22T03:28:36.125Z,521.00
2024-01-22T03:29:36.261Z,519.00
2024-01-22T03:30:36.251Z,514.00
2024-01-22T03:31:36.293Z,515.00
2024-01-22T03:32:36.472Z,514.00
2024-01-22T03:33:36.488Z,514.00
2024-01-22T03:34:36.555Z,516.00
2024-01-22T03:35:36.516Z,517.00
2024-01-22T03:36:36.560Z,516.00
2024-01-22T03:37:36.637Z,516.00
2024-01-22T03:38:36.706Z,515.00
2024-01-22T03:39:36.714Z,517.00
2024-01-22T03:40:36.810Z,520.00
2024-01-22T03:41:36.842Z,521.00
2024-01-22T03:42:36.873Z,522.00
2024-01-22T03:43:36.920Z,525.00
2024-01-22T03:44:37.001Z,528.00
2024-01-22T03:45:37.027Z,528.00
2024-01-22T03:46:37.079Z,527.00
2024-01-22T03:47:37.177Z,525.00
2024-01-22T03:48:37.268Z,527.00
2024-01-22T03:49:37.419Z,527.00
2024-01-22T03:50:37.416Z,527.00
2024-01-22T03:51:37.359Z,527.00
2024-01-22T03:52:37.418Z,525.00
2024-01-22T03:53:37.645Z,523.00
2024-01-22T03:54:37.534Z,522.00
2024-01-22T03:55:37.590Z,521.00
2024-01-22T03:56:37.649Z,523.00
2024-01-22T03:57:37.707Z,524.00
2024-01-22T03:58:37.750Z,524.00
2024-01-22T03:59:37.837Z,524.00
2024-01-22T04:00:37.878Z,522.00
2024-01-22T04:01:37.915Z,524.00
2024-01-22T04:02:38.112Z,526.00
2024-01-22T04:03:38.174Z,524.00
2024-01-22T04:04:38.072Z,524.00
2024-01-22T04:05:38.225Z,526.00
2024-01-22T04:06:38.355Z,526.00
2024-01-22T04:07:38.237Z,527.00
2024-01-22T04:08:38.294Z,522.00
2024-01-22T04:09:38.385Z,521.00
2024-01-22T04:10:38.472Z,520.00
2024-01-22T04:11:38.481Z,518.00
2024-01-22T04:12:38.524Z,518.00
2024-01-22T04:13:38.582Z,517.00
2024-01-22T04:14:38.662Z,517.00
2024-01-22T04:15:38.691Z,517.00
2024-01-22T04:16:38.744Z,518.00
2024-01-22T04:17:38.888Z,518.00
2024-01-22T04:18:38.986Z,521.00
2024-01-22T04:19:38.959Z,520.00
2024-01-22T04:20:38.996Z,521.00
2024-01-22T04:21:39.024Z,520.00
2024-01-22T04:22:39.099Z,518.00
2024-01-22T04:23:39.164Z,516.00
2024-01-22T04:24:39.195Z,518.00
2024-01-22T04:25:39.278Z,519.00
2024-01-22T04:26:39.306Z,521.00
2024-01-22T04:27:39.348Z,520.00
2024-01-22T04:28:39.418Z,522.00
2024-01-22T04:29:39.525Z,522.00
2024-01-22T04:30:41.834Z,524.00
2024-01-22T04:31:39.513Z,525.00
2024-01-22T04:32:39.687Z,525.00
2024-01-22T04:33:39.645Z,522.00
2024-01-22T04:34:39.515Z,520.00
2024-01-22T04:35:39.556Z,520.00
2024-01-22T04:36:39.518Z,521.00
2024-01-22T04:37:39.528Z,521.00
2024-01-22T04:38:39.556Z,521.00
2024-01-22T04:39:39.523Z,523.00
2024-01-22T04:40:39.521Z,523.00
2024-01-22T04:41:39.600Z,524.00
2024-01-22T04:42:39.526Z,521.00
2024-01-22T04:43:39.578Z,521.00
2024-01-22T04:44:39.624Z,521.00
2024-01-22T04:45:39.651Z,520.00
2024-01-22T04:46:39.709Z,521.00
2024-01-22T04:47:39.854Z,520.00
2024-01-22T04:48:39.915Z,521.00
2024-01-22T04:49:39.906Z,520.00
2024-01-22T04:50:47.191Z,517.00
2024-01-22T04:51:48.160Z,513.00
2024-01-22T04:52:48.157Z,514.00
2024-01-22T04:53:48.224Z,515.00
2024-01-22T04:54:48.161Z,514.00
2024-01-22T04:55:48.162Z,512.00
2024-01-22T04:56:48.279Z,513.00
2024-01-22T04:57:48.162Z,514.00
2024-01-22T04:58:48.164Z,514.00
2024-01-22T04:59:48.248Z,512.00
2024-01-22T05:00:48.230Z,509.00
2024-01-22T05:01:48.169Z,510.00
2024-01-22T05:02:48.297Z,514.00
2024-01-22T05:03:48.220Z,512.00
2024-01-22T05:04:48.182Z,512.00
2024-01-22T05:05:48.320Z,511.00
2024-01-22T05:06:48.324Z,510.00
2024-01-22T05:07:48.199Z,511.00
2024-01-22T05:08:48.299Z,510.00
2024-01-22T05:09:48.315Z,512.00
2024-01-22T05:10:48.386Z,513.00
2024-01-22T05:11:48.439Z,512.00
2024-01-22T05:12:48.498Z,510.00
2024-01-22T05:13:48.536Z,510.00
2024-01-22T05:14:48.634Z,510.00
2024-01-22T05:15:48.663Z,512.00
2024-01-22T05:16:48.711Z,513.00
2024-01-22T05:17:49.103Z,512.00
2024-01-22T05:18:49.016Z,512.00
2024-01-22T05:19:48.889Z,511.00
2024-01-22T05:20:48.915Z,512.00
2024-01-22T05:21:48.968Z,515.00
2024-01-22T05:22:49.039Z,512.00
2024-01-22T05:23:49.120Z,510.00
2024-01-22T05:24:49.173Z,510.00
2024-01-22T05:25:49.202Z,510.00
2024-01-22T05:26:49.303Z,509.00
2024-01-22T05:27:49.310Z,508.00
2024-01-22T05:28:49.406Z,507.00
2024-01-22T05:29:49.462Z,507.00
2024-01-22T05:30:49.490Z,507.00
2024-01-22T05:31:49.550Z,510.00
2024-01-22T05:32:53.121Z,513.00
2024-01-22T05:33:49.698Z,511.00
2024-01-22T05:34:49.749Z,509.00
2024-01-22T05:35:49.631Z,507.00
2024-01-22T05:36:49.613Z,507.00
2024-01-22T05:37:49.617Z,508.00
2024-01-22T05:38:49.701Z,509.00
2024-01-22T05:39:49.670Z,509.00
2024-01-22T05:40:49.624Z,508.00
2024-01-22T05:41:49.632Z,510.00
2024-01-22T05:42:49.638Z,511.00
2024-01-22T05:43:49.663Z,511.00
2024-01-22T05:44:49.770Z,513.00
2024-01-22T05:45:49.785Z,513.00
2024-01-22T05:46:49.855Z,512.00
2024-01-22T05:47:50.022Z,511.00
2024-01-22T05:48:50.056Z,511.00
2024-01-22T05:49:50.098Z,512.00
2024-01-22T05:50:50.164Z,512.00
2024-01-22T05:51:50.171Z,508.00
2024-01-22T05:52:50.224Z,510.00
2024-01-22T05:53:50.309Z,511.00
2024-01-22T05:54:50.385Z,510.00
2024-01-22T05:55:50.432Z,506.00
2024-01-22T05:56:51.124Z,504.00
2024-01-22T05:57:50.649Z,507.00
2024-01-22T05:58:50.711Z,507.00
2024-01-22T05:59:50.846Z,509.00
2024-01-22T06:00:50.968Z,507.00
2024-01-22T06:01:50.884Z,505.00
2024-01-22T06:02:51.029Z,507.00
2024-01-22T06:03:51.035Z,509.00
2024-01-22T06:04:51.048Z,509.00
2024-01-22T06:05:51.284Z,509.00
2024-01-22T06:06:51.290Z,511.00
2024-01-22T06:07:51.232Z,512.00
2024-01-22T06:08:51.356Z,513.00
2024-01-22T06:09:58.829Z,513.00
2024-01-22T06:10:51.370Z,511.00
2024-01-22T06:11:51.442Z,506.00
2024-01-22T06:12:51.823Z,505.00
2024-01-22T06:13:57.988Z,508.00
2024-01-22T06:14:51.429Z,517.00
2024-01-22T06:15:51.374Z,522.00
2024-01-22T06:16:51.400Z,525.00
2024-01-22T06:17:51.496Z,552.00
2024-01-22T06:18:51.941Z,559.00
2024-01-22T06:19:51.440Z,572.00
2024-01-22T06:20:51.428Z,584.00
2024-01-22T06:21:51.410Z,600.00
2024-01-22T06:22:51.381Z,608.00
2024-01-22T06:23:52.093Z,618.00
2024-01-22T06:24:51.786Z,620.00
2024-01-22T06:25:51.410Z,625.00
2024-01-22T06:26:51.419Z,633.00
2024-01-22T06:27:51.387Z,640.00
2024-01-22T06:28:51.403Z,658.00
2024-01-22T06:29:51.448Z,668.00
2024-01-22T06:30:51.396Z,668.00
2024-01-22T06:31:51.410Z,673.00
2024-01-22T06:32:52.024Z,680.00
2024-01-22T06:33:51.599Z,688.00
2024-01-22T06:34:51.592Z,700.00
2024-01-22T06:35:51.463Z,700.00
2024-01-22T06:36:51.481Z,698.00
2024-01-22T06:37:51.556Z,698.00
2024-01-22T06:38:51.877Z,699.00
2024-01-22T06:39:51.630Z,701.00
2024-01-22T06:40:53.252Z,709.00
2024-01-22T06:41:51.729Z,731.00
2024-01-22T06:42:51.802Z,767.00
2024-01-22T06:43:51.866Z,679.00
2024-01-22T06:44:51.771Z,701.00
2024-01-22T06:45:51.694Z,755.00
2024-01-22T06:46:51.720Z,767.00
2024-01-22T06:47:51.779Z,790.00
2024-01-22T06:48:51.956Z,817.00
2024-01-22T06:49:52.100Z,827.00
2024-01-22T06:50:52.098Z,882.00
2024-01-22T06:51:52.185Z,910.00
2024-01-22T06:52:52.049Z,900.00
2024-01-22T06:53:52.151Z,966.00
2024-01-22T06:54:52.051Z,991.00
2024-01-22T06:55:52.023Z,1007.00
2024-01-22T06:56:52.195Z,1027.00
2024-01-22T06:57:52.934Z,1059.00
2024-01-22T06:58:53.987Z,1063.00
2024-01-22T06:59:54.329Z,1098.00
2024-01-22T07:00:51.999Z,1189.00
2024-01-22T07:01:51.944Z,1217.00
2024-01-22T07:02:59.499Z,1240.00
2024-01-22T07:03:52.450Z,1263.00
2024-01-22T07:05:23.890Z,1332.00
2024-01-22T07:06:51.995Z,1397.00
2024-01-22T07:07:51.965Z,1433.00
2024-01-22T07:08:52.007Z,1457.00
2024-01-22T07:09:51.960Z,1478.00
2024-01-22T07:10:52.335Z,1506.00
2024-01-22T07:11:52.033Z,1539.00
2024-01-22T07:12:51.962Z,1565.00
2024-01-22T07:13:51.964Z,1630.00
2024-01-22T07:14:52.004Z,1650.00
2024-01-22T07:15:51.995Z,1664.00
2024-01-22T07:16:51.967Z,1698.00
2024-01-22T07:17:52.073Z,1720.00
2024-01-22T07:18:52.720Z,1763.00
2024-01-22T07:19:52.035Z,1784.00
2024-01-22T07:20:52.058Z,1803.00
2024-01-22T07:21:51.993Z,1825.00
2024-01-22T07:22:51.991Z,1859.00
2024-01-22T07:23:55.554Z,1886.00
2024-01-22T07:24:52.015Z,1915.00
2024-01-22T07:25:52.027Z,1939.00
2024-01-22T07:26:55.277Z,1969.00
2024-01-22T07:27:52.345Z,2004.00
2024-01-22T07:28:53.128Z,2030.00
2024-01-22T07:29:52.092Z,2050.00
2024-01-22T07:30:52.005Z,2077.00
2024-01-22T07:31:52.016Z,2101.00
2024-01-22T07:32:52.406Z,2131.00
2024-01-22T07:33:52.487Z,2153.00
2024-01-22T07:34:52.184Z,2175.00
2024-01-22T07:35:52.264Z,2203.00
2024-01-22T07:36:52.289Z,2253.00
2024-01-22T07:37:52.310Z,2284.00
2024-01-22T07:38:52.856Z,2300.00
2024-01-22T07:39:52.420Z,2321.00
2024-01-22T07:40:54.085Z,2381.00
2024-01-22T07:41:52.505Z,2393.00
2024-01-22T07:42:52.885Z,2409.00
2024-01-22T07:43:52.460Z,2430.00
2024-01-22T07:44:52.504Z,2450.00
2024-01-22T07:45:52.461Z,2475.00
2024-01-22T07:46:52.469Z,2487.00
2024-01-22T07:47:52.963Z,2512.00
2024-01-22T07:48:52.605Z,2553.00
2024-01-22T07:49:52.519Z,2592.00
2024-01-22T07:50:52.507Z,2609.00
2024-01-22T07:51:53.485Z,2639.00
2024-01-22T07:52:52.894Z,2662.00
2024-01-22T07:53:52.497Z,2718.00
2024-01-22T07:54:52.484Z,2736.00
2024-01-22T07:55:52.470Z,2753.00
2024-01-22T07:56:52.510Z,2775.00
2024-01-22T07:57:52.852Z,2826.00
2024-01-22T07:58:52.484Z,2848.00
2024-01-22T07:59:52.586Z,2865.00
2024-01-22T08:00:52.525Z,2881.00
2024-01-22T08:01:52.866Z,2891.00
2024-01-22T08:02:52.928Z,2915.00
2024-01-22T08:04:08.143Z,2627.00
2024-01-22T08:04:52.494Z,2681.00
2024-01-22T08:05:52.607Z,2138.00
2024-01-22T08:06:52.612Z,2463.00
2024-01-22T08:07:52.499Z,2765.00
2024-01-22T08:08:52.546Z,2795.00
2024-01-22T08:09:55.713Z,2704.00
2024-01-22T08:10:52.509Z,2731.00
2024-01-22T08:11:52.640Z,2736.00
2024-01-22T08:12:52.859Z,2734.00
2024-01-22T08:13:52.506Z,2741.00
2024-01-22T08:14:52.535Z,2754.00
2024-01-22T08:15:52.507Z,2774.00
2024-01-22T08:16:52.511Z,2791.00
2024-01-22T08:17:52.917Z,2815.00
2024-01-22T08:18:52.685Z,2857.00
2024-01-22T08:19:52.538Z,2884.00
2024-01-22T08:20:52.547Z,2905.00
2024-01-22T08:21:52.510Z,2927.00
2024-01-22T08:22:52.868Z,2950.00
2024-01-22T08:23:52.556Z,3030.00
2024-01-22T08:24:52.542Z,3042.00
2024-01-22T08:25:52.583Z,3052.00
2024-01-22T08:26:52.541Z,3065.00
2024-01-22T08:27:52.872Z,3084.00
2024-01-22T08:28:52.901Z,3106.00
2024-01-22T08:29:52.543Z,3158.00
2024-01-22T08:30:52.864Z,3198.00
2024-01-22T08:31:52.536Z,3211.00
2024-01-22T08:32:53.097Z,3208.00
2024-01-22T08:33:53.126Z,2733.00
2024-01-22T08:34:52.928Z,1698.00
2024-01-22T08:35:53.192Z,1819.00
2024-01-22T08:36:52.713Z,1903.00
2024-01-22T08:37:53.483Z,1911.00
2024-01-22T08:38:55.994Z,2135.00
2024-01-22T08:39:56.038Z,2204.00
2024-01-22T08:40:52.667Z,2296.00
2024-01-22T08:41:52.926Z,2316.00
2024-01-22T08:42:52.894Z,2299.00
2024-01-22T08:43:52.534Z,2335.00
2024-01-22T08:44:52.566Z,2382.00
2024-01-22T08:45:52.566Z,2404.00
2024-01-22T08:46:52.872Z,2413.00
2024-01-22T08:47:52.915Z,2408.00
2024-01-22T08:48:52.691Z,2067.00
2024-01-22T08:49:52.722Z,2080.00
2024-01-22T08:50:52.721Z,2327.00
2024-01-22T08:51:52.870Z,2397.00
2024-01-22T08:52:52.801Z,2190.00
2024-01-22T08:53:53.032Z,1985.00
2024-01-22T08:54:52.974Z,1693.00
2024-01-22T08:55:54.850Z,1831.00
2024-01-22T08:56:52.913Z,1812.00
2024-01-22T08:57:52.873Z,2017.00
2024-01-22T08:58:53.026Z,2074.00
2024-01-22T08:59:53.379Z,2132.00
2024-01-22T09:00:52.896Z,2157.00
2024-01-22T09:01:52.922Z,2186.00
2024-01-22T09:02:53.661Z,2213.00
2024-01-22T09:03:52.962Z,2255.00
2024-01-22T09:04:52.911Z,2319.00
2024-01-22T09:05:52.954Z,2347.00
2024-01-22T09:06:53.403Z,2375.00
2024-01-22T09:07:53.844Z,2410.00
2024-01-22T09:09:00.355Z,2474.00
2024-01-22T09:09:52.900Z,2483.00
2024-01-22T09:10:52.898Z,2507.00
2024-01-22T09:11:54.421Z,2532.00
2024-01-22T09:12:53.385Z,2573.00
2024-01-22T09:13:53.066Z,2596.00
2024-01-22T09:14:53.023Z,2618.00
2024-01-22T09:15:53.017Z,2641.00
2024-01-22T09:16:53.023Z,2673.00
2024-01-22T09:17:53.546Z,2705.00
2024-01-22T09:18:53.157Z,2745.00
2024-01-22T09:19:53.189Z,2772.00
2024-01-22T09:20:53.173Z,2797.00
2024-01-22T09:21:53.125Z,2813.00
2024-01-22T09:22:53.393Z,2839.00
2024-01-22T09:23:53.169Z,2860.00
2024-01-22T09:24:53.182Z,2882.00
2024-01-22T09:25:53.174Z,2901.00
2024-01-22T09:26:53.239Z,2918.00
2024-01-22T09:27:53.461Z,2941.00
2024-01-22T09:28:53.618Z,2967.00
2024-01-22T09:29:56.446Z,2994.00
2024-01-22T09:30:53.520Z,3035.00
2024-01-22T09:31:53.223Z,3060.00
2024-01-22T09:32:53.474Z,3082.00
2024-01-22T09:33:53.521Z,3107.00
2024-01-22T09:34:53.235Z,3133.00
2024-01-22T09:35:53.249Z,3162.00
2024-01-22T09:37:08.813Z,3204.00
2024-01-22T09:37:53.286Z,3236.00
2024-01-22T09:38:53.417Z,3259.00
2024-01-22T09:39:53.449Z,3271.00
2024-01-22T09:40:53.255Z,3263.00
2024-01-22T09:42:00.707Z,3249.00
2024-01-22T09:42:53.397Z,3221.00
2024-01-22T09:43:53.269Z,3200.00
2024-01-22T09:44:53.332Z,3169.00
2024-01-22T09:45:53.246Z,2990.00
2024-01-22T09:46:53.238Z,2959.00
2024-01-22T09:47:53.539Z,2911.00
2024-01-22T09:48:53.487Z,2877.00
2024-01-22T09:50:00.677Z,2850.00
2024-01-22T09:50:53.278Z,2795.00
2024-01-22T09:51:53.411Z,2692.00
2024-01-22T09:52:53.240Z,2588.00
2024-01-22T09:53:53.338Z,2558.00
2024-01-22T09:54:53.387Z,2513.00
2024-01-22T09:55:53.421Z,2469.00
2024-01-22T09:56:56.459Z,2448.00
2024-01-22T09:57:53.412Z,2380.00
2024-01-22T09:58:53.412Z,2294.00
2024-01-22T09:59:53.973Z,2256.00
2024-01-22T10:00:53.339Z,2222.00
2024-01-22T10:01:53.246Z,2197.00
2024-01-22T10:02:53.279Z,2171.00
2024-01-22T10:03:54.400Z,2105.00
2024-01-22T10:04:53.261Z,2089.00
2024-01-22T10:05:53.397Z,2074.00
2024-01-22T10:06:53.485Z,2052.00
2024-01-22T10:07:53.271Z,1969.00
2024-01-22T10:08:53.294Z,1924.00
2024-01-22T10:09:53.250Z,1882.00
2024-01-22T10:10:53.319Z,1871.00
2024-01-22T10:11:53.438Z,1861.00
2024-01-22T10:12:53.469Z,1852.00
2024-01-22T10:13:53.495Z,1839.00
2024-01-22T10:14:53.653Z,1823.00
2024-01-22T10:15:53.659Z,1803.00
2024-01-22T10:16:53.677Z,1786.00
2024-01-22T10:17:53.844Z,1759.00
2024-01-22T10:18:53.997Z,1733.00
2024-01-22T10:19:55.035Z,1712.00
2024-01-22T10:20:55.487Z,1698.00
2024-01-22T10:21:54.063Z,1678.00
2024-01-22T10:22:54.426Z,1668.00
2024-01-22T10:23:54.267Z,1654.00
2024-01-22T10:24:54.317Z,1640.00
2024-01-22T10:25:54.320Z,1622.00
2024-01-22T10:26:54.375Z,1610.00
2024-01-22T10:27:54.943Z,1604.00
2024-01-22T10:28:54.697Z,1592.00
2024-01-22T10:29:55.643Z,1573.00
2024-01-22T10:30:54.912Z,1552.00
2024-01-22T10:31:55.680Z,1535.00
2024-01-22T10:32:54.803Z,1523.00
2024-01-22T10:33:55.053Z,1507.00
2024-01-22T10:34:55.117Z,1495.00
2024-01-22T10:35:55.108Z,1487.00
2024-01-22T10:36:54.867Z,1471.00
2024-01-22T10:37:54.960Z,1464.00
2024-01-22T10:38:55.937Z,1457.00
2024-01-22T10:39:55.440Z,1450.00
2024-01-22T10:40:54.978Z,1440.00
2024-01-22T10:41:56.834Z,1432.00
2024-01-22T10:42:55.046Z,1418.00
2024-01-22T10:43:55.211Z,1401.00
2024-01-22T10:44:55.035Z,1374.00
2024-01-22T10:45:55.480Z,1353.00
2024-01-22T10:46:55.022Z,1344.00
2024-01-22T10:47:57.977Z,1338.00
2024-01-22T10:48:55.634Z,1332.00
2024-01-22T10:49:55.469Z,1320.00
2024-01-22T10:50:55.453Z,1305.00
2024-01-22T10:51:55.418Z,1296.00
2024-01-22T10:52:55.489Z,1292.00
2024-01-22T10:53:55.673Z,1290.00
2024-01-22T10:54:55.530Z,1291.00
2024-01-22T10:55:55.506Z,1287.00
2024-01-22T10:56:55.537Z,1280.00
2024-01-22T10:57:55.610Z,1270.00
2024-01-22T10:58:55.524Z,1263.00
2024-01-22T10:59:56.112Z,1255.00
2024-01-22T11:00:55.604Z,1249.00
2024-01-22T11:01:55.931Z,1242.00
2024-01-22T11:02:58.797Z,1234.00
2024-01-22T11:03:57.957Z,1230.00
2024-01-22T11:04:56.444Z,1222.00
2024-01-22T11:05:55.587Z,1208.00
2024-01-22T11:06:55.562Z,1198.00
2024-01-22T11:07:55.553Z,1187.00
2024-01-22T11:08:56.284Z,1180.00
2024-01-22T11:09:58.443Z,1176.00
2024-01-22T11:10:58.762Z,1167.00
2024-01-22T11:11:55.564Z,1159.00
2024-01-22T11:12:55.942Z,1152.00
2024-01-22T11:13:55.941Z,1147.00
2024-01-22T11:14:55.657Z,1141.00
2024-01-22T11:15:55.967Z,1131.00
2024-01-22T11:16:55.584Z,1121.00
2024-01-22T11:17:55.738Z,1119.00
2024-01-22T11:18:55.782Z,1115.00
2024-01-22T11:19:55.615Z,1106.00
2024-01-22T11:20:55.982Z,1100.00
2024-01-22T11:21:57.304Z,1095.00
2024-01-22T11:22:55.571Z,1082.00
2024-01-22T11:24:27.771Z,1076.00
2024-01-22T11:24:55.584Z,1087.00
2024-01-22T11:25:56.594Z,1163.00
2024-01-22T11:26:55.612Z,1269.00
2024-01-22T11:27:56.792Z,1300.00
2024-01-22T11:28:55.945Z,1331.00
2024-01-22T11:29:55.660Z,1381.00
2024-01-22T11:30:55.588Z,1453.00
2024-01-22T11:31:55.627Z,1481.00
2024-01-22T11:32:55.703Z,1503.00
2024-01-22T11:33:57.509Z,1560.00
2024-01-22T11:34:55.698Z,1603.00
2024-01-22T11:35:55.632Z,1630.00
2024-01-22T11:36:55.703Z,1684.00
2024-01-22T11:37:55.601Z,1716.00
2024-01-22T11:38:56.001Z,1737.00
2024-01-22T11:39:57.886Z,1763.00
2024-01-22T11:40:55.588Z,1792.00
2024-01-22T11:41:55.678Z,1818.00
2024-01-22T11:42:55.668Z,1870.00
2024-01-22T11:43:55.934Z,1893.00
2024-01-22T11:44:55.961Z,1909.00
2024-01-22T11:45:57.089Z,1925.00
2024-01-22T11:46:55.763Z,1943.00
2024-01-22T11:47:55.788Z,2003.00
2024-01-22T11:48:57.129Z,2033.00
2024-01-22T11:49:55.884Z,2053.00
2024-01-22T11:50:56.502Z,2074.00
2024-01-22T11:51:55.882Z,2132.00
2024-01-22T11:52:55.981Z,2155.00
2024-01-22T11:53:56.914Z,2173.00
2024-01-22T11:54:56.002Z,2198.00
2024-01-22T11:55:56.018Z,2230.00
2024-01-22T11:56:56.571Z,2263.00
2024-01-22T11:57:56.034Z,2287.00
2024-01-22T11:58:56.092Z,2306.00
2024-01-22T11:59:56.067Z,2333.00
2024-01-22T12:00:56.097Z,2368.00
2024-01-22T12:01:56.544Z,2402.00
2024-01-22T12:02:56.467Z,2426.00
2024-01-22T12:03:59.148Z,2447.00
2024-01-22T12:04:56.444Z,2474.00
2024-01-22T12:05:56.091Z,2499.00
2024-01-22T12:06:56.138Z,2525.00
2024-01-22T12:07:57.812Z,2548.00
2024-01-22T12:09:00.486Z,2583.00
2024-01-22T12:09:56.031Z,2629.00
2024-01-22T12:10:56.050Z,2667.00
2024-01-22T12:11:56.522Z,2695.00
2024-01-22T12:12:56.982Z,2725.00
2024-01-22T12:13:57.935Z,2728.00
2024-01-22T12:14:56.209Z,2720.00
2024-01-22T12:15:56.067Z,2699.00
2024-01-22T12:16:56.068Z,2681.00
2024-01-22T12:17:56.232Z,2656.00
2024-01-22T12:18:56.506Z,2646.00
2024-01-22T12:19:58.472Z,2630.00
2024-01-22T12:20:56.509Z,2626.00
2024-01-22T12:21:56.074Z,2620.00
2024-01-22T12:22:56.124Z,2615.00
2024-01-22T12:23:56.483Z,2609.00
2024-01-22T12:24:56.047Z,2603.00
2024-01-22T12:26:00.575Z,2600.00
2024-01-22T12:26:56.197Z,2590.00
2024-01-22T12:27:56.071Z,2587.00
2024-01-22T12:28:56.454Z,2587.00
2024-01-22T12:29:56.056Z,2586.00
2024-01-22T12:30:56.057Z,2584.00
2024-01-22T12:31:56.057Z,2579.00
2024-01-22T12:32:56.243Z,2572.00
2024-01-22T12:33:56.597Z,2572.00
2024-01-22T12:34:56.157Z,2563.00
2024-01-22T12:35:56.120Z,2564.00
2024-01-22T12:36:56.056Z,2558.00
2024-01-22T12:37:56.075Z,2561.00
2024-01-22T12:38:56.587Z,2565.00
2024-01-22T12:39:56.458Z,2559.00
2024-01-22T12:40:56.470Z,2555.00
2024-01-22T12:41:56.162Z,2551.00
2024-01-22T12:42:56.118Z,2547.00
2024-01-22T12:43:56.092Z,2541.00
2024-01-22T12:44:56.497Z,2539.00
2024-01-22T12:45:56.073Z,2533.00
2024-01-22T12:46:56.077Z,2526.00
2024-01-22T12:47:56.206Z,2523.00
2024-01-22T12:48:57.242Z,2521.00
2024-01-22T12:49:56.273Z,2516.00
2024-01-22T12:50:56.475Z,2514.00
2024-01-22T12:51:56.137Z,2510.00
2024-01-22T12:52:56.204Z,2502.00
2024-01-22T12:53:56.555Z,2499.00
2024-01-22T12:54:56.179Z,2499.00
2024-01-22T12:55:56.139Z,2495.00
2024-01-22T12:56:56.805Z,2490.00
2024-01-22T12:57:56.485Z,2489.00
2024-01-22T12:58:56.154Z,2486.00
2024-01-22T12:59:56.160Z,2483.00
2024-01-22T13:00:56.402Z,2478.00
2024-01-22T13:01:56.419Z,2480.00
2024-01-22T13:02:56.589Z,2480.00
2024-01-22T13:03:57.022Z,2479.00
2024-01-22T13:04:56.714Z,2484.00
2024-01-22T13:05:56.847Z,2487.00
2024-01-22T13:06:56.968Z,2486.00
2024-01-22T13:07:56.899Z,2484.00
2024-01-22T13:08:57.028Z,2480.00
2024-01-22T13:09:57.017Z,2475.00
2024-01-22T13:10:57.128Z,2474.00